createdAt,value
2019-01-23T00:02:21.595Z,0.90
2019-01-23T00:04:50.102Z,0.90
2019-01-23T00:07:18.532Z,0.90
2019-01-23T00:09:46.991Z,0.90
2019-01-23T00:12:15.437Z,0.90
2019-01-23T00:14:43.861Z,0.90
2019-01-23T00:17:12.316Z,0.90
2019-01-23T00:19:40.810Z,0.90
2019-01-23T00:22:09.331Z,0.90
2019-01-23T00:24:37.755Z,0.90
2019-01-23T00:27:06.207Z,0.90
2019-01-23T00:29:34.647Z,0.90
2019-01-23T00:32:03.100Z,0.90
2019-01-23T00:34:31.552Z,0.90
2019-01-23T00:36:59.997Z,0.90
2019-01-23T00:39:28.440Z,0.90
2019-01-23T00:41:56.852Z,0.90
2019-01-23T00:44:25.304Z,0.90
2019-01-23T00:46:53.755Z,0.90
2019-01-23T00:49:22.211Z,0.90
2019-01-23T00:51:50.694Z,0.80
2019-01-23T00:54:19.322Z,0.80
2019-01-23T00:56:47.753Z,0.80
2019-01-23T00:59:16.200Z,0.80
2019-01-23T01:01:44.714Z,0.80
2019-01-23T01:04:13.165Z,0.80
2019-01-23T01:06:41.591Z,0.80
2019-01-23T01:09:10.177Z,0.80
2019-01-23T01:11:38.626Z,0.80
2019-01-23T01:14:07.059Z,0.80
2019-01-23T01:16:35.511Z,0.80
2019-01-23T01:19:04.094Z,0.80
2019-01-23T01:21:32.539Z,0.80
2019-01-23T01:24:01.656Z,0.70
2019-01-23T01:26:30.094Z,0.70
2019-01-23T01:28:58.551Z,0.70
2019-01-23T01:31:26.998Z,0.70
2019-01-23T01:33:55.471Z,0.80
2019-01-23T01:36:23.928Z,0.80
2019-01-23T01:38:52.341Z,0.80
2019-01-23T01:41:20.872Z,0.80
2019-01-23T01:43:49.292Z,0.70
2019-01-23T01:46:17.747Z,0.70
2019-01-23T01:48:46.198Z,0.70
2019-01-23T01:51:14.671Z,0.70
2019-01-23T01:53:43.108Z,0.70
2019-01-23T01:56:11.563Z,0.60
2019-01-23T01:58:40.016Z,0.60
2019-01-23T02:01:08.450Z,0.60
2019-01-23T02:03:36.898Z,0.60
2019-01-23T02:06:05.541Z,0.60
2019-01-23T02:08:33.979Z,0.60
2019-01-23T02:11:02.409Z,0.60
2019-01-23T02:13:30.841Z,0.60
2019-01-23T02:15:59.311Z,0.60
2019-01-23T02:18:27.710Z,0.60
2019-01-23T02:20:56.616Z,0.60
2019-01-23T02:23:25.036Z,0.60
2019-01-23T02:25:53.459Z,0.50
2019-01-23T02:28:21.903Z,0.50
2019-01-23T02:30:50.364Z,0.50
2019-01-23T02:33:18.808Z,0.50
2019-01-23T02:35:47.264Z,0.40
2019-01-23T02:38:15.682Z,0.50
2019-01-23T02:40:44.134Z,0.50
2019-01-23T02:43:12.555Z,0.50
2019-01-23T02:45:40.975Z,0.50
2019-01-23T02:48:09.432Z,0.50
2019-01-23T02:50:37.856Z,0.50
2019-01-23T02:53:06.314Z,0.50
2019-01-23T02:55:34.783Z,0.50
2019-01-23T02:58:03.289Z,0.50
2019-01-23T03:00:31.755Z,0.50
2019-01-23T03:03:00.167Z,0.50
2019-01-23T03:05:28.578Z,0.50
2019-01-23T03:07:57.058Z,0.40
2019-01-23T03:10:25.472Z,0.50
2019-01-23T03:12:53.900Z,0.50
2019-01-23T03:15:22.361Z,0.50
2019-01-23T03:17:50.776Z,0.40
2019-01-23T03:20:20.057Z,0.50
2019-01-23T03:22:48.518Z,0.50
2019-01-23T03:25:17.199Z,0.50
2019-01-23T03:27:45.655Z,0.40
2019-01-23T03:30:21.324Z,0.40
2019-01-23T03:32:49.992Z,0.40
2019-01-23T03:35:18.523Z,0.40
2019-01-23T03:37:46.943Z,0.40
2019-01-23T03:40:20.268Z,0.40
2019-01-23T03:42:48.791Z,0.40
2019-01-23T03:45:17.649Z,0.30
2019-01-23T03:47:46.149Z,0.40
2019-01-23T03:50:16.701Z,0.40
2019-01-23T03:52:45.194Z,0.40
2019-01-23T03:55:15.311Z,0.40
2019-01-23T03:57:43.900Z,0.40
2019-01-23T04:00:18.461Z,0.40
2019-01-23T04:02:47.745Z,0.40
2019-01-23T04:05:16.265Z,0.50
2019-01-23T04:07:45.192Z,0.50
2019-01-23T04:10:15.805Z,0.50
2019-01-23T04:12:44.398Z,0.40
2019-01-23T04:15:15.515Z,0.50
2019-01-23T04:17:44.378Z,0.50
2019-01-23T04:20:18.150Z,0.50
2019-01-23T04:22:46.595Z,0.40
2019-01-23T04:25:15.172Z,0.50
2019-01-23T04:27:43.721Z,0.50
2019-01-23T04:30:17.687Z,0.50
2019-01-23T04:32:46.202Z,0.50
2019-01-23T04:35:14.656Z,0.40
2019-01-23T04:37:43.107Z,0.50
2019-01-23T04:40:13.161Z,0.50
2019-01-23T04:42:41.635Z,0.50
2019-01-23T04:45:13.034Z,0.50
2019-01-23T04:47:41.530Z,0.40
2019-01-23T04:50:12.012Z,0.40
2019-01-23T04:52:47.872Z,0.40
2019-01-23T04:55:16.296Z,0.40
2019-01-23T04:57:44.711Z,0.40
2019-01-23T05:00:15.435Z,0.40
2019-01-23T05:02:43.872Z,0.40
2019-01-23T05:05:12.891Z,0.40
2019-01-23T05:07:41.346Z,0.50
2019-01-23T05:10:09.913Z,0.40
2019-01-23T05:12:38.347Z,0.50
2019-01-23T05:15:08.398Z,0.50
2019-01-23T05:17:37.210Z,0.60
2019-01-23T05:20:11.657Z,0.60
2019-01-23T05:22:40.072Z,0.60
2019-01-23T05:25:08.758Z,0.70
2019-01-23T05:27:37.783Z,0.70
2019-01-23T05:30:12.261Z,0.70
2019-01-23T05:32:40.711Z,0.70
2019-01-23T05:35:09.267Z,0.70
2019-01-23T05:37:37.733Z,0.70
2019-01-23T05:40:08.659Z,0.70
2019-01-23T05:42:37.115Z,0.70
2019-01-23T05:45:08.039Z,0.80
2019-01-23T05:47:36.493Z,0.80
2019-01-23T05:50:08.014Z,0.80
2019-01-23T05:52:36.469Z,0.70
2019-01-23T05:55:07.431Z,0.80
2019-01-23T05:57:35.857Z,0.80
2019-01-23T06:00:07.730Z,0.80
2019-01-23T06:02:36.187Z,0.80
2019-01-23T06:05:07.778Z,0.80
2019-01-23T06:07:36.207Z,0.80
2019-01-23T06:10:07.343Z,0.80
2019-01-23T06:12:35.774Z,0.80
2019-01-23T06:15:08.623Z,0.80
2019-01-23T06:17:37.079Z,0.90
2019-01-23T06:20:08.860Z,0.90
2019-01-23T06:22:37.272Z,0.90
2019-01-23T06:25:06.736Z,1.00
2019-01-23T06:27:35.182Z,1.00
2019-01-23T06:30:10.410Z,1.00
2019-01-23T06:32:36.635Z,0.90
2019-01-23T06:35:06.130Z,0.90
2019-01-23T06:37:34.624Z,0.90
2019-01-23T06:40:03.744Z,1.00
2019-01-23T06:42:32.162Z,1.00
2019-01-23T06:45:00.628Z,1.00
2019-01-23T06:47:29.079Z,1.00
2019-01-23T06:49:58.897Z,1.00
2019-01-23T06:52:27.426Z,1.10
2019-01-23T06:54:55.860Z,1.00
2019-01-23T06:57:24.315Z,1.00
2019-01-23T06:59:52.743Z,1.10
2019-01-23T07:02:21.256Z,1.10
2019-01-23T07:04:49.691Z,1.00
2019-01-23T07:07:18.157Z,1.00
2019-01-23T07:09:46.585Z,1.10
2019-01-23T07:12:14.997Z,1.00
2019-01-23T07:14:43.456Z,1.00
2019-01-23T07:17:11.957Z,1.10
2019-01-23T07:19:40.413Z,1.10
2019-01-23T07:22:08.866Z,1.10
2019-01-23T07:24:37.287Z,1.10
2019-01-23T07:27:05.822Z,1.10
2019-01-23T07:29:34.747Z,1.10
2019-01-23T07:32:03.240Z,1.10
2019-01-23T07:34:31.682Z,1.10
2019-01-23T07:37:00.132Z,1.10
2019-01-23T07:39:28.555Z,1.10
2019-01-23T07:41:57.153Z,1.00
2019-01-23T07:44:25.599Z,1.10
2019-01-23T07:46:54.044Z,1.10
2019-01-23T07:49:22.499Z,1.10
2019-01-23T07:51:50.943Z,1.10
2019-01-23T07:54:19.404Z,1.20
2019-01-23T07:56:47.831Z,1.20
2019-01-23T07:59:16.300Z,1.30
2019-01-23T08:01:44.719Z,1.40
2019-01-23T08:04:13.223Z,1.40
2019-01-23T08:06:41.651Z,1.40
2019-01-23T08:09:10.076Z,1.40
2019-01-23T08:11:38.604Z,1.40
2019-01-23T08:14:07.166Z,1.40
2019-01-23T08:16:35.607Z,1.50
2019-01-23T08:19:04.104Z,1.50
2019-01-23T08:21:32.522Z,1.50
2019-01-23T08:24:01.040Z,1.50
2019-01-23T08:26:29.481Z,1.60
2019-01-23T08:28:57.907Z,1.60
2019-01-23T08:31:26.358Z,1.60
2019-01-23T08:33:54.915Z,1.70
2019-01-23T08:36:23.372Z,1.70
2019-01-23T08:38:51.817Z,1.70
2019-01-23T08:41:20.265Z,1.70
2019-01-23T08:43:48.701Z,1.80
2019-01-23T08:46:17.160Z,1.90
2019-01-23T08:48:45.598Z,1.90
2019-01-23T08:51:14.038Z,1.90
2019-01-23T08:53:42.479Z,2.00
2019-01-23T08:56:10.915Z,2.00
2019-01-23T08:58:39.339Z,2.00
2019-01-23T09:01:07.807Z,2.10
2019-01-23T09:03:36.229Z,2.10
2019-01-23T09:06:04.955Z,2.20
2019-01-23T09:08:37.563Z,2.40
2019-01-23T09:11:03.537Z,2.50
2019-01-23T09:13:31.962Z,2.60
2019-01-23T09:16:00.494Z,2.60
2019-01-23T09:18:28.938Z,2.60
2019-01-23T09:20:57.363Z,2.70
2019-01-23T09:23:25.806Z,2.80
2019-01-23T09:25:54.270Z,2.80
2019-01-23T09:28:22.768Z,2.90
2019-01-23T09:30:54.580Z,2.90
2019-01-23T09:33:26.164Z,2.90
2019-01-23T09:36:33.079Z,3.10
2019-01-23T09:39:22.031Z,3.20
2019-01-23T09:41:56.317Z,3.30
2019-01-23T09:44:47.018Z,3.30
2019-01-23T09:47:18.575Z,3.40
2019-01-23T09:49:52.943Z,3.30
2019-01-23T09:52:33.603Z,3.30
2019-01-23T09:55:02.131Z,3.40
2019-01-23T09:57:31.214Z,3.40
2019-01-23T09:59:59.663Z,3.40
2019-01-23T10:02:28.254Z,3.50
2019-01-23T10:04:56.699Z,3.50
2019-01-23T10:07:25.171Z,3.40
2019-01-23T10:09:53.644Z,3.40
2019-01-23T10:12:22.100Z,3.40
2019-01-23T10:14:50.558Z,3.50
2019-01-23T10:17:18.991Z,3.60
2019-01-23T10:19:47.441Z,3.90
2019-01-23T10:22:15.883Z,4.20
2019-01-23T10:24:44.299Z,4.30
2019-01-23T10:27:12.766Z,4.30
2019-01-23T10:29:41.196Z,4.20
2019-01-23T10:32:09.656Z,4.00
2019-01-23T10:34:38.080Z,3.90
2019-01-23T10:37:06.603Z,3.80
2019-01-23T10:39:35.034Z,3.70
2019-01-23T10:42:03.662Z,3.60
2019-01-23T10:44:32.104Z,3.50
2019-01-23T10:47:00.527Z,3.40
2019-01-23T10:49:28.980Z,3.30
2019-01-23T10:51:57.419Z,3.20
2019-01-23T10:54:25.937Z,3.20
2019-01-23T10:56:54.523Z,3.20
2019-01-23T10:59:22.955Z,3.20
2019-01-23T11:01:51.409Z,3.30
2019-01-23T11:04:19.873Z,3.30
2019-01-23T11:06:48.323Z,3.40
2019-01-23T11:09:16.861Z,3.50
2019-01-23T11:11:45.307Z,3.60
2019-01-23T11:14:13.736Z,3.70
2019-01-23T11:16:42.185Z,3.90
2019-01-23T11:19:10.648Z,4.10
2019-01-23T11:21:39.095Z,4.20
2019-01-23T11:24:07.519Z,4.30
2019-01-23T11:26:35.970Z,4.40
2019-01-23T11:29:04.477Z,4.50
2019-01-23T11:31:32.990Z,4.60
2019-01-23T11:34:01.504Z,4.60
2019-01-23T11:36:29.930Z,4.70
2019-01-23T11:38:58.451Z,4.80
2019-01-23T11:41:26.863Z,4.90
2019-01-23T11:43:55.323Z,5.00
2019-01-23T11:46:23.778Z,5.20
2019-01-23T11:48:52.216Z,5.30
2019-01-23T11:51:20.757Z,5.50
2019-01-23T11:53:49.257Z,5.70
2019-01-23T11:56:17.670Z,5.80
2019-01-23T11:58:46.101Z,5.90
2019-01-23T12:01:14.547Z,5.90
2019-01-23T12:03:42.983Z,5.90
2019-01-23T12:06:11.473Z,5.80
2019-01-23T12:08:39.923Z,5.70
2019-01-23T12:11:08.375Z,5.60
2019-01-23T12:13:36.795Z,5.40
2019-01-23T12:16:05.260Z,5.20
2019-01-23T12:18:33.742Z,5.00
2019-01-23T12:21:02.190Z,4.90
2019-01-23T12:23:30.610Z,4.90
2019-01-23T12:25:59.111Z,4.80
2019-01-23T12:28:27.531Z,4.90
2019-01-23T12:30:56.019Z,4.90
2019-01-23T12:33:24.460Z,4.90
2019-01-23T12:35:52.973Z,4.90
2019-01-23T12:38:21.422Z,4.90
2019-01-23T12:40:49.853Z,4.90
2019-01-23T12:43:18.321Z,4.90
2019-01-23T12:45:46.832Z,4.90
2019-01-23T12:48:15.383Z,4.90
2019-01-23T12:50:43.804Z,4.80
2019-01-23T12:53:13.639Z,4.80
2019-01-23T12:55:42.050Z,4.80
2019-01-23T12:58:10.554Z,4.80
2019-01-23T13:00:39.045Z,4.90
2019-01-23T13:03:07.544Z,4.90
2019-01-23T13:05:35.971Z,5.00
2019-01-23T13:08:04.551Z,5.00
2019-01-23T13:10:33.040Z,5.00
2019-01-23T13:13:01.550Z,5.00
2019-01-23T13:15:30.167Z,5.00
2019-01-23T13:17:58.831Z,5.00
2019-01-23T13:20:27.714Z,5.00
2019-01-23T13:22:56.140Z,4.90
2019-01-23T13:25:26.535Z,4.90
2019-01-23T13:27:55.186Z,4.90
2019-01-23T13:30:25.677Z,4.90
2019-01-23T13:32:54.395Z,5.00
2019-01-23T13:35:31.440Z,5.00
2019-01-23T13:38:00.276Z,5.00
2019-01-23T13:40:31.271Z,4.90
2019-01-23T13:42:59.864Z,4.90
2019-01-23T13:45:28.290Z,4.90
2019-01-23T13:47:56.820Z,4.90
2019-01-23T13:50:25.318Z,4.90
2019-01-23T13:52:53.773Z,5.00
2019-01-23T13:55:23.218Z,4.90
2019-01-23T13:57:51.747Z,4.90
2019-01-23T14:00:25.952Z,4.80
2019-01-23T14:02:54.383Z,4.90
2019-01-23T14:05:23.850Z,4.80
2019-01-23T14:07:52.266Z,4.70
2019-01-23T14:10:20.750Z,4.60
2019-01-23T14:12:49.204Z,4.60
2019-01-23T14:15:23.261Z,4.40
2019-01-23T14:17:51.835Z,4.30
2019-01-23T14:20:20.347Z,4.30
2019-01-23T14:22:48.786Z,4.20
2019-01-23T14:25:17.600Z,4.10
2019-01-23T14:27:46.024Z,4.00
2019-01-23T14:30:28.871Z,4.00
2019-01-23T14:32:57.318Z,3.90
2019-01-23T14:35:25.858Z,3.70
2019-01-23T14:38:00.331Z,3.70
2019-01-23T14:40:24.507Z,3.60
2019-01-23T14:42:52.947Z,3.60
2019-01-23T14:45:21.404Z,3.50
2019-01-23T14:47:49.974Z,3.50
2019-01-23T14:50:19.955Z,3.50
2019-01-23T14:52:49.139Z,3.40
2019-01-23T14:55:17.787Z,3.30
2019-01-23T14:57:46.546Z,3.30
2019-01-23T15:00:20.883Z,3.30
2019-01-23T15:02:49.324Z,3.20
2019-01-23T15:05:17.775Z,3.10
2019-01-23T15:07:46.218Z,3.10
2019-01-23T15:10:17.524Z,3.10
2019-01-23T15:12:46.015Z,3.10
2019-01-23T15:15:14.912Z,3.00
2019-01-23T15:17:43.369Z,3.00
2019-01-23T15:20:17.684Z,3.00
2019-01-23T15:22:46.147Z,3.00
2019-01-23T15:25:14.707Z,3.00
2019-01-23T15:27:43.155Z,3.00
2019-01-23T15:30:15.197Z,2.90
2019-01-23T15:32:43.754Z,2.90
2019-01-23T15:35:12.459Z,2.90
2019-01-23T15:37:40.889Z,2.90
2019-01-23T15:40:17.982Z,2.90
2019-01-23T15:42:46.479Z,2.80
2019-01-23T15:45:15.161Z,2.80
2019-01-23T15:47:43.624Z,2.80
2019-01-23T15:50:17.574Z,2.80
2019-01-23T15:52:45.991Z,2.80
2019-01-23T15:55:17.303Z,2.70
2019-01-23T15:57:45.819Z,2.70
2019-01-23T16:00:23.008Z,2.60
2019-01-23T16:02:51.462Z,2.60
2019-01-23T16:05:19.881Z,2.60
2019-01-23T16:07:48.331Z,2.60
2019-01-23T16:10:20.409Z,2.60
2019-01-23T16:12:49.096Z,2.60
2019-01-23T16:15:20.220Z,2.50
2019-01-23T16:17:48.683Z,2.50
2019-01-23T16:20:17.243Z,2.50
2019-01-23T16:22:46.312Z,2.50
2019-01-23T16:25:16.310Z,2.60
2019-01-23T16:27:45.666Z,2.60
2019-01-23T16:30:17.172Z,2.60
2019-01-23T16:32:45.665Z,2.50
2019-01-23T16:35:14.356Z,2.50
2019-01-23T16:37:43.016Z,2.40
2019-01-23T16:40:11.618Z,2.30
2019-01-23T16:42:40.077Z,2.20
2019-01-23T16:45:17.248Z,2.20
2019-01-23T16:47:45.803Z,2.20
2019-01-23T16:50:17.206Z,2.20
2019-01-23T16:52:45.647Z,2.10
2019-01-23T16:55:14.547Z,2.10
2019-01-23T16:57:43.309Z,2.10
2019-01-23T17:00:20.104Z,2.20
2019-01-23T17:02:48.619Z,2.10
2019-01-23T17:05:25.333Z,2.10
2019-01-23T17:07:53.995Z,2.00
2019-01-23T17:10:24.186Z,1.90
2019-01-23T17:12:52.838Z,1.90
2019-01-23T17:15:21.313Z,1.90
2019-01-23T17:17:49.743Z,1.90
2019-01-23T17:20:23.911Z,1.90
2019-01-23T17:22:52.335Z,1.90
2019-01-23T17:25:20.875Z,1.90
2019-01-23T17:27:49.406Z,1.90
2019-01-23T17:30:19.591Z,1.90
2019-01-23T17:32:48.270Z,1.90
2019-01-23T17:35:18.943Z,1.90
2019-01-23T17:37:47.364Z,1.90
2019-01-23T17:40:18.143Z,2.00
2019-01-23T17:42:46.752Z,2.00
2019-01-23T17:45:18.481Z,2.00
2019-01-23T17:47:47.175Z,2.00
2019-01-23T17:50:18.356Z,2.00
2019-01-23T17:52:46.795Z,2.00
2019-01-23T17:55:30.057Z,1.90
2019-01-23T17:57:58.656Z,1.90
2019-01-23T18:00:30.480Z,1.90
2019-01-23T18:02:58.987Z,1.90
2019-01-23T18:05:27.432Z,1.80
2019-01-23T18:07:55.896Z,1.80
2019-01-23T18:10:24.403Z,1.70
2019-01-23T18:12:52.831Z,1.70
2019-01-23T18:15:23.870Z,1.70
2019-01-23T18:17:52.343Z,1.70
2019-01-23T18:20:23.193Z,1.60
2019-01-23T18:22:51.611Z,1.60
2019-01-23T18:25:20.128Z,1.60
2019-01-23T18:27:48.580Z,1.70
2019-01-23T18:30:19.954Z,1.70
2019-01-23T18:32:49.189Z,1.60
2019-01-23T18:35:20.685Z,1.60
2019-01-23T18:38:00.860Z,1.60
2019-01-23T18:40:32.381Z,1.60
2019-01-23T18:43:23.215Z,1.60
2019-01-23T18:45:57.424Z,1.60
2019-01-23T18:48:37.816Z,1.60
2019-01-23T18:51:12.606Z,1.60
2019-01-23T18:53:41.032Z,1.60
2019-01-23T18:56:09.477Z,1.60
2019-01-23T18:58:37.957Z,1.60
2019-01-23T19:01:06.475Z,1.60
2019-01-23T19:03:34.935Z,1.60
2019-01-23T19:06:03.426Z,1.70
2019-01-23T19:08:31.880Z,1.70
2019-01-23T19:11:00.371Z,1.70
2019-01-23T19:13:28.824Z,1.70
2019-01-23T19:15:57.318Z,1.70
2019-01-23T19:18:25.736Z,1.60
2019-01-23T19:20:54.259Z,1.60
2019-01-23T19:23:22.706Z,1.60
2019-01-23T19:25:51.255Z,1.50
2019-01-23T19:28:19.890Z,1.60
2019-01-23T19:30:48.322Z,1.60
2019-01-23T19:33:16.808Z,1.60
2019-01-23T19:35:45.615Z,1.50
2019-01-23T19:38:14.090Z,1.50
2019-01-23T19:40:42.700Z,1.40
2019-01-23T19:43:11.491Z,1.40
2019-01-23T19:45:40.388Z,1.30
2019-01-23T19:48:09.033Z,1.30
2019-01-23T19:50:37.506Z,1.30
2019-01-23T19:53:06.251Z,1.30
2019-01-23T19:55:34.826Z,1.30
2019-01-23T19:58:04.581Z,1.30
2019-01-23T20:00:33.351Z,1.30
2019-01-23T20:03:02.073Z,1.30
2019-01-23T20:05:30.732Z,1.30
2019-01-23T20:07:59.319Z,1.30
2019-01-23T20:10:28.019Z,1.30
2019-01-23T20:12:56.613Z,1.30
2019-01-23T20:15:25.493Z,1.20
2019-01-23T20:17:55.613Z,1.20
2019-01-23T20:20:24.510Z,1.20
2019-01-23T20:22:53.168Z,1.20
2019-01-23T20:25:24.510Z,1.20
2019-01-23T20:27:53.331Z,1.20
2019-01-23T20:30:33.542Z,1.20
2019-01-23T20:33:03.631Z,1.20
2019-01-23T20:35:32.163Z,1.20
2019-01-23T20:38:02.077Z,1.20
2019-01-23T20:40:30.757Z,1.20
2019-01-23T20:42:59.471Z,1.20
2019-01-23T20:45:28.050Z,1.20
2019-01-23T20:47:56.658Z,1.20
2019-01-23T20:50:27.693Z,1.20
2019-01-23T20:52:57.952Z,1.30
2019-01-23T20:55:26.548Z,1.30
2019-01-23T20:57:55.233Z,1.30
2019-01-23T21:00:26.450Z,1.20
2019-01-23T21:02:55.168Z,1.20
2019-01-23T21:05:23.971Z,1.10
2019-01-23T21:07:52.667Z,1.10
2019-01-23T21:10:25.749Z,1.10
2019-01-23T21:12:55.083Z,1.00
2019-01-23T21:15:30.551Z,1.00
2019-01-23T21:17:59.261Z,0.90
2019-01-23T21:20:28.780Z,0.90
2019-01-23T21:22:57.234Z,0.80
2019-01-23T21:25:25.654Z,0.80
2019-01-23T21:27:54.255Z,0.80
2019-01-23T21:30:24.848Z,0.80
2019-01-23T21:32:53.317Z,0.80
2019-01-23T21:35:22.911Z,0.80
2019-01-23T21:37:51.339Z,0.80
2019-01-23T21:40:22.115Z,0.80
2019-01-23T21:42:50.558Z,0.80
2019-01-23T21:45:19.127Z,0.80
2019-01-23T21:47:49.216Z,0.80
2019-01-23T21:50:19.703Z,0.70
2019-01-23T21:52:48.141Z,0.70
2019-01-23T21:55:19.135Z,0.70
2019-01-23T21:57:47.555Z,0.70
2019-01-23T22:00:21.528Z,0.70
2019-01-23T22:02:50.073Z,0.70
2019-01-23T22:05:18.518Z,0.60
2019-01-23T22:07:46.962Z,0.60
2019-01-23T22:10:15.846Z,0.60
2019-01-23T22:12:44.303Z,0.60
2019-01-23T22:15:22.060Z,0.60
2019-01-23T22:17:50.504Z,0.60
2019-01-23T22:20:20.471Z,0.60
2019-01-23T22:22:48.915Z,0.60
2019-01-23T22:25:22.679Z,0.60
2019-01-23T22:27:51.208Z,0.50
2019-01-23T22:30:22.330Z,0.50
2019-01-23T22:32:50.753Z,0.50
2019-01-23T22:35:19.351Z,0.50
2019-01-23T22:37:47.834Z,0.50
2019-01-23T22:40:18.295Z,0.50
2019-01-23T22:42:46.779Z,0.50
2019-01-23T22:45:17.850Z,0.50
2019-01-23T22:47:46.381Z,0.40
2019-01-23T22:50:17.035Z,0.40
2019-01-23T22:52:45.632Z,0.40
2019-01-23T22:55:14.528Z,0.50
2019-01-23T22:57:42.992Z,0.50
2019-01-23T23:00:42.991Z,0.40
2019-01-23T23:03:13.591Z,0.40
2019-01-23T23:05:42.023Z,0.40
2019-01-23T23:08:10.531Z,0.50
2019-01-23T23:10:38.951Z,0.50
2019-01-23T23:13:07.471Z,0.50
2019-01-23T23:15:35.904Z,0.50
2019-01-23T23:18:04.683Z,0.50
2019-01-23T23:20:33.112Z,0.50
2019-01-23T23:23:01.551Z,0.50
2019-01-23T23:25:30.031Z,0.60
2019-01-23T23:27:58.455Z,0.60
2019-01-23T23:30:27.609Z,0.60
2019-01-23T23:32:56.112Z,0.60
2019-01-23T23:35:24.645Z,0.60
2019-01-23T23:37:53.134Z,0.60
2019-01-23T23:40:21.595Z,0.60
2019-01-23T23:42:50.015Z,0.60
2019-01-23T23:45:19.112Z,0.60
2019-01-23T23:47:47.553Z,0.60
2019-01-23T23:50:16.825Z,0.60
2019-01-23T23:52:45.393Z,0.50
2019-01-23T23:55:15.459Z,0.60
2019-01-23T23:57:44.051Z,0.50
